Nearby METAR Reports. Back to Deeside Weather.

 

EGNR - Hawarden (aut), United Kingdom
Distance from station: NNE 5mi, 8km
Updated: Wed, 20-Feb-2019 5:50am GMT
Light rain, Mostly cloudy
Light rain, Mostly cloudy
 Wind from ESE
Wind: ESE 6 mph , 9 km/h
Temperature: 48°F , 9°C
Wind Chill: 45°F , 7°C
Dew Point: 43°F , 6°C
Humidity: 82%
Barometer: 29.91 inHg , 1013 hPa
Summary: Light Rain
Clouds: Mostly Cloudy
Visibility: 6 miles , 10 km
Cloud details: Mostly Cloudy 2400 ft
2019/02/20 05:50 EGNR 200550Z 12005KT 070V180 9999 -RA BKN024 09/06 Q1013
EGGP - Liverpool Airpor, United Kingdom
Distance from station: NNE 17mi, 27km
Updated: Wed, 20-Feb-2019 5:50am GMT
Nearby showers, Mostly cloudy
Nearby showers, Mostly cloudy
 Wind from S
Wind: S 10 mph , 17 km/h
Temperature: 46°F , 8°C
Wind Chill: 41°F , 5°C
Dew Point: 43°F , 6°C
Humidity: 87%
Barometer: 29.88 inHg , 1012 hPa
Summary: Nearby Showers
Clouds: Mostly Cloudy
Visibility: 6 miles , 10 km
Cloud details: Mostly Cloudy 2800 ft
2019/02/20 05:50 EGGP 200550Z 17009KT 9999 VCSH BKN028 08/06 Q1012
 
EGOS - Shawbury Raf, United Kingdom
Distance from station: SE 25mi, 41km
Updated: Wed, 20-Feb-2019 5:50am GMT
Mostly Cloudy
Mostly Cloudy
 Wind from SSW
Wind: SSW 15 mph , 24 km/h
Temperature: 48°F , 9°C
Wind Chill: 42°F , 6°C
Dew Point: 43°F , 6°C
Humidity: 82%
Barometer: 29.91 inHg , 1013 hPa
Clouds: Mostly Cloudy
Visibility: 6 miles , 10 km
Cloud details: Mostly Cloudy 2200 ft
2019/02/20 05:50 EGOS 200550Z 20013KT 9999 BKN022 09/06 Q1013 WHT
EGCC - Manchester Intl, United Kingdom
Distance from station: ENE 36mi, 58km
Updated: Wed, 20-Feb-2019 5:50am GMT
Partly Cloudy
Partly Cloudy
 Wind from S
Wind: S 9 mph , 15 km/h
Temperature: 46°F , 8°C
Wind Chill: 41°F , 5°C
Dew Point: 41°F , 5°C
Humidity: 82%
Barometer: 29.91 inHg , 1013 hPa
Clouds: Partly Cloudy
Visibility: 6 miles , 10 km
Cloud details: Partly Cloudy 2300 ft
Partly Cloudy 2900 ft
2019/02/20 05:50 EGCC 200550Z AUTO 19008KT 150V220 9999 SCT023 SCT029 08/05 Q1013 NOSIG

Metar display script from Saratoga-Weather.org